Time;durP1;ratioP1;P1;durP2;ratioP2;P2;SDS_P1;SDS_P2;PMS_P1;PMS_P2;Temp;Humidity;BMP_temperature;BMP_pressure;BME280_temperature;BME280_humidity;BME280_pressure;Samples;Min_cycle;Max_cycle;Signal;HPM_P1;HPM_P2
2022/10/25 00:01:45;;;;;;;15.02;6.65;;;11.80;99.90;;;;;;4987452;28;20045;-45
2022/10/25 00:04:11;;;;;;;13.07;5.88;;;11.80;99.90;;;;;;4986542;28;20045;-43
2022/10/25 00:06:36;;;;;;;15.05;6.70;;;11.70;99.90;;;;;;4985208;28;20034;-39
2022/10/25 00:09:02;;;;;;;16.30;6.47;;;11.70;99.90;;;;;;4985675;28;20526;-44
2022/10/25 00:11:30;;;;;;;11.15;5.65;;;11.70;99.90;;;;;;4988956;28;20507;-41
2022/10/25 00:13:58;;;;;;;11.55;5.53;;;11.70;99.90;;;;;;4985642;28;20042;-42
2022/10/25 00:16:29;;;;;;;13.35;5.75;;;11.70;99.90;;;;;;4987989;28;20050;-44
2022/10/25 00:18:55;;;;;;;11.95;5.55;;;11.70;99.90;;;;;;4978116;28;20069;-44
2022/10/25 00:21:21;;;;;;;14.15;5.43;;;11.70;99.90;;;;;;4987384;28;20034;-42
2022/10/25 00:23:47;;;;;;;9.10;5.15;;;11.70;99.90;;;;;;4982639;28;20035;-48
2022/10/25 00:26:13;;;;;;;10.07;4.97;;;11.70;99.90;;;;;;4983781;28;20043;-39
2022/10/25 00:28:39;;;;;;;10.57;4.72;;;11.70;99.90;;;;;;4983487;28;20038;-43
2022/10/25 00:31:10;;;;;;;15.88;6.68;;;11.70;99.90;;;;;;4987815;28;20038;-40
2022/10/25 00:33:37;;;;;;;12.20;5.18;;;11.70;99.90;;;;;;4979354;28;20045;-41
2022/10/25 00:36:04;;;;;;;11.63;5.60;;;11.70;99.90;;;;;;4982395;28;20525;-45
2022/10/25 00:38:30;;;;;;;11.95;5.10;;;11.80;99.90;;;;;;4985339;28;20039;-43
2022/10/25 00:40:56;;;;;;;14.13;5.72;;;11.80;99.90;;;;;;4985719;28;20038;-43
2022/10/25 00:43:48;;;;;;;11.70;5.50;;;11.90;99.90;;;;;;4987798;28;20046;-42
2022/10/25 00:46:17;;;;;;;14.85;5.50;;;11.90;99.90;;;;;;4989060;28;20539;-44
2022/10/25 00:49:05;;;;;;;10.65;5.35;;;12.00;99.90;;;;;;4989730;28;20035;-42
2022/10/25 00:51:48;;;;;;;12.15;5.60;;;12.00;99.90;;;;;;4978811;28;20392;-46
2022/10/25 00:54:19;;;;;;;;;;;12.00;99.90;;;;;;4990063;28;20130;-45
2022/10/25 00:56:47;;;;;;;10.80;4.95;;;12.10;99.90;;;;;;4991634;28;19929;-41
2022/10/25 00:59:18;;;;;;;13.15;5.47;;;12.10;99.90;;;;;;4994162;28;20054;-43
2022/10/25 01:01:43;;;;;;;12.32;4.40;;;12.20;99.90;;;;;;4990456;28;20480;-43
2022/10/25 01:04:13;;;;;;;10.35;4.78;;;12.20;99.90;;;;;;4988750;28;20430;-40
2022/10/25 01:06:47;;;;;;;10.30;4.68;;;12.20;99.90;;;;;;4990309;28;20105;-43
2022/10/25 01:09:18;;;;;;;9.82;4.65;;;12.20;99.90;;;;;;4994275;28;20125;-44
2022/10/25 01:11:44;;;;;;;10.38;4.18;;;12.20;99.90;;;;;;4986593;28;20046;-45
2022/10/25 01:14:13;;;;;;;10.63;4.30;;;12.20;99.90;;;;;;4986876;28;20096;-43
2022/10/25 01:17:12;;;;;;;11.82;5.13;;;12.20;99.90;;;;;;4993641;28;20043;-44
2022/10/25 01:19:59;;;;;;;12.23;5.15;;;12.20;99.90;;;;;;4985170;28;20113;-44
2022/10/25 01:22:32;;;;;;;10.60;4.70;;;12.20;99.90;;;;;;4985422;28;22299;-45
2022/10/25 01:25:25;;;;;;;10.75;4.63;;;12.20;99.90;;;;;;4982048;28;20038;-42
2022/10/25 01:28:03;;;;;;;10.18;4.20;;;12.20;99.90;;;;;;4990405;28;20042;-44
2022/10/25 01:31:03;;;;;;;12.70;4.60;;;12.30;99.90;;;;;;4994311;28;20076;-44
2022/10/25 01:34:08;;;;;;;11.50;4.53;;;12.30;99.90;;;;;;4991406;28;20039;-42
2022/10/25 01:36:55;;;;;;;10.20;4.25;;;12.30;99.90;;;;;;4981651;28;20066;-42
2022/10/25 01:39:32;;;;;;;13.32;5.00;;;12.30;99.90;;;;;;4992624;28;20557;-45
2022/10/25 01:42:28;;;;;;;13.30;4.90;;;12.40;99.90;;;;;;4989105;28;20049;-42
2022/10/25 01:45:14;;;;;;;13.88;4.32;;;12.50;99.90;;;;;;4988436;28;20049;-43
2022/10/25 01:48:01;;;;;;;13.60;5.03;;;12.50;99.90;;;;;;4990026;28;20056;-44
2022/10/25 01:50:31;;;;;;;11.68;4.55;;;12.50;99.90;;;;;;4989922;28;20046;-43
2022/10/25 01:52:56;;;;;;;9.20;4.40;;;12.50;99.90;;;;;;4987297;28;20061;-46
2022/10/25 01:55:31;;;;;;;12.60;4.35;;;12.60;99.90;;;;;;4983075;28;20047;-43
2022/10/25 01:58:20;;;;;;;11.27;5.03;;;12.60;99.90;;;;;;4987717;28;20531;-47
2022/10/25 02:01:13;;;;;;;13.13;5.10;;;12.60;99.90;;;;;;4985536;28;20086;-43
2022/10/25 02:03:48;;;;;;;10.45;4.50;;;12.70;99.90;;;;;;4991894;28;20042;-41
2022/10/25 02:06:30;;;;;;;9.95;4.85;;;12.70;99.90;;;;;;4987820;28;20552;-42
2022/10/25 02:09:18;;;;;;;14.38;4.85;;;12.70;99.90;;;;;;4986166;28;20050;-43
2022/10/25 02:11:44;;;;;;;12.20;6.18;;;12.70;99.90;;;;;;4982400;28;20519;-45
2022/10/25 02:14:36;;;;;;;12.75;5.47;;;12.70;99.90;;;;;;4989423;28;20046;-40
2022/10/25 02:17:18;;;;;;;13.23;5.00;;;12.70;99.90;;;;;;4985990;28;20043;-47
2022/10/25 02:19:53;;;;;;;12.00;5.23;;;12.70;99.90;;;;;;4982618;28;20034;-43
2022/10/25 02:22:22;;;;;;;11.75;5.38;;;12.70;99.90;;;;;;4983629;28;20473;-43
2022/10/25 02:24:50;;;;;;;15.90;5.82;;;12.80;99.90;;;;;;4989440;28;20545;-43
2022/10/25 02:27:19;;;;;;;14.48;4.50;;;12.70;99.90;;;;;;4988923;28;20046;-44
2022/10/25 02:29:46;;;;;;;11.52;5.47;;;12.80;99.90;;;;;;4986494;28;20117;-42
2022/10/25 02:32:12;;;;;;;9.60;4.97;;;12.70;99.90;;;;;;4983582;28;20607;-43
2022/10/25 02:34:39;;;;;;;13.82;5.22;;;12.70;99.90;;;;;;4988021;28;20500;-42
2022/10/25 02:37:05;;;;;;;10.43;5.18;;;12.70;99.90;;;;;;4987678;28;20054;-43
2022/10/25 02:39:31;;;;;;;13.50;5.95;;;12.70;99.90;;;;;;4991419;28;20038;-41
2022/10/25 02:41:57;;;;;;;11.55;4.82;;;12.60;99.90;;;;;;4988679;28;20049;-42
2022/10/25 02:44:23;;;;;;;10.13;5.45;;;12.60;99.90;;;;;;4987271;28;20400;-45
2022/10/25 02:46:49;;;;;;;13.77;5.90;;;12.60;99.90;;;;;;4985799;28;20061;-43
2022/10/25 02:49:14;;;;;;;10.80;5.30;;;12.60;99.90;;;;;;4989755;28;20674;-43
2022/10/25 02:51:40;;;;;;;14.38;5.65;;;12.50;99.90;;;;;;4986957;28;20791;-43
2022/10/25 02:54:06;;;;;;;13.98;5.63;;;12.50;99.90;;;;;;4992043;28;20052;-44
2022/10/25 02:56:31;;;;;;;11.75;5.05;;;12.50;99.90;;;;;;4987325;28;20077;-42
2022/10/25 02:58:57;;;;;;;15.50;6.05;;;12.50;99.90;;;;;;4988234;28;20128;-45
2022/10/25 03:01:24;;;;;;;11.63;5.20;;;12.50;99.90;;;;;;4989507;28;20038;-43
2022/10/25 03:03:50;;;;;;;15.35;5.68;;;12.50;99.90;;;;;;4988446;28;20492;-42
2022/10/25 03:06:16;;;;;;;11.18;4.90;;;12.50;99.90;;;;;;4984006;28;20325;-45
2022/10/25 03:08:43;;;;;;;18.05;6.63;;;12.50;99.90;;;;;;4985664;28;20512;-42
2022/10/25 03:11:10;;;;;;;14.95;5.45;;;12.50;99.90;;;;;;4985399;28;20087;-43
2022/10/25 03:13:36;;;;;;;13.30;5.68;;;12.40;99.90;;;;;;4990477;28;20053;-42
2022/10/25 03:16:02;;;;;;;13.40;5.47;;;12.50;99.90;;;;;;4990582;28;20046;-43
2022/10/25 03:18:27;;;;;;;14.73;5.40;;;12.50;99.90;;;;;;4990670;28;20030;-44
2022/10/25 03:20:58;;;;;;;14.63;5.30;;;12.50;99.90;;;;;;4983340;28;20066;-45
2022/10/25 03:23:24;;;;;;;16.33;5.20;;;12.50;99.90;;;;;;4988957;28;20038;-44
2022/10/25 03:25:57;;;;;;;13.30;5.63;;;12.50;99.90;;;;;;4988094;28;20034;-41
2022/10/25 03:28:23;;;;;;;14.02;5.07;;;12.50;99.90;;;;;;4991912;28;20422;-44
2022/10/25 03:30:49;;;;;;;11.85;5.15;;;12.50;99.90;;;;;;4987302;28;20046;-43
2022/10/25 03:33:15;;;;;;;15.10;5.60;;;12.40;99.90;;;;;;4989365;28;20117;-41
2022/10/25 03:35:41;;;;;;;12.85;5.65;;;12.50;99.90;;;;;;4984728;28;20487;-42
2022/10/25 03:38:07;;;;;;;10.38;4.60;;;12.40;99.90;;;;;;4982086;28;20043;-44
2022/10/25 03:40:33;;;;;;;14.38;6.43;;;12.40;99.90;;;;;;4989052;28;20034;-40
2022/10/25 03:42:58;;;;;;;12.55;5.28;;;12.40;99.90;;;;;;4985685;28;20466;-44
2022/10/25 03:45:24;;;;;;;18.33;6.03;;;12.40;99.90;;;;;;4986919;28;20420;-45
2022/10/25 03:47:51;;;;;;;11.48;5.05;;;12.40;99.90;;;;;;4989584;28;20669;-41
2022/10/25 03:50:17;;;;;;;19.45;6.28;;;12.40;99.90;;;;;;4984132;28;20118;-44
2022/10/25 03:52:42;;;;;;;11.68;5.20;;;12.40;99.90;;;;;;4983766;28;20096;-41
2022/10/25 03:55:09;;;;;;;14.15;4.82;;;12.40;99.90;;;;;;4982666;28;20078;-43
2022/10/25 03:57:35;;;;;;;13.38;5.70;;;12.40;99.90;;;;;;4987232;28;20097;-44
2022/10/25 04:00:01;;;;;;;16.55;4.88;;;12.40;99.90;;;;;;4986627;28;20038;-47
2022/10/25 04:02:27;;;;;;;15.43;5.88;;;12.40;99.90;;;;;;4983972;28;20409;-41
2022/10/25 04:04:53;;;;;;;11.60;5.70;;;12.40;99.90;;;;;;4979254;28;20070;-39
2022/10/25 04:07:18;;;;;;;16.23;6.35;;;12.50;99.90;;;;;;4985678;28;20069;-44
2022/10/25 04:09:44;;;;;;;13.98;5.65;;;12.50;99.90;;;;;;4984305;28;20562;-43
2022/10/25 04:12:11;;;;;;;16.50;4.93;;;12.50;99.90;;;;;;4987918;28;20034;-44
2022/10/25 04:14:36;;;;;;;14.20;5.07;;;12.50;99.90;;;;;;4988462;28;20162;-42
2022/10/25 04:17:02;;;;;;;15.98;5.70;;;12.50;99.90;;;;;;4982931;28;20039;-45
2022/10/25 04:19:28;;;;;;;15.85;6.18;;;12.50;99.90;;;;;;4985274;28;20042;-44
2022/10/25 04:21:54;;;;;;;20.58;5.40;;;12.50;99.90;;;;;;4980521;28;20519;-43
2022/10/25 04:24:21;;;;;;;17.25;5.43;;;12.50;99.90;;;;;;4983774;28;20177;-43
2022/10/25 04:26:47;;;;;;;14.77;5.03;;;12.50;99.90;;;;;;4985261;28;20053;-43
2022/10/25 04:29:14;;;;;;;12.10;4.95;;;12.50;99.90;;;;;;4987978;28;20809;-44
2022/10/25 04:31:40;;;;;;;12.35;4.68;;;12.40;99.90;;;;;;4988214;28;20042;-41
2022/10/25 04:34:06;;;;;;;14.88;4.32;;;12.40;99.90;;;;;;4985461;28;20084;-43
2022/10/25 04:36:31;;;;;;;22.25;4.32;;;12.40;99.90;;;;;;4986957;28;20050;-42
2022/10/25 04:38:57;;;;;;;14.38;4.03;;;12.40;99.90;;;;;;4989041;28;20484;-42
2022/10/25 04:41:23;;;;;;;13.02;4.55;;;12.40;99.90;;;;;;4983007;28;20049;-43
2022/10/25 04:43:50;;;;;;;11.48;4.68;;;12.30;99.90;;;;;;4989360;28;20038;-42
2022/10/25 04:46:16;;;;;;;14.45;4.97;;;12.30;99.90;;;;;;4987481;28;20053;-44
2022/10/25 04:48:42;;;;;;;9.10;3.90;;;12.20;99.90;;;;;;4983077;28;20509;-41
2022/10/25 04:51:09;;;;;;;10.05;3.42;;;12.20;99.90;;;;;;4980528;28;20116;-39
2022/10/25 04:53:35;;;;;;;12.73;4.03;;;12.20;99.90;;;;;;4988312;28;20050;-43
2022/10/25 04:56:05;;;;;;;11.95;3.72;;;12.20;99.90;;;;;;4983813;28;20045;-45
2022/10/25 04:58:31;;;;;;;12.70;3.78;;;12.30;99.90;;;;;;4981915;28;20051;-44
2022/10/25 05:01:03;;;;;;;10.45;3.40;;;12.30;99.90;;;;;;4980640;28;20074;-41
2022/10/25 05:03:29;;;;;;;9.40;3.20;;;12.20;99.90;;;;;;4988174;28;20034;-41
2022/10/25 05:06:03;;;;;;;9.15;3.50;;;12.30;99.90;;;;;;4984383;28;20392;-44
2022/10/25 05:08:28;;;;;;;11.43;3.58;;;12.30;99.90;;;;;;4985835;28;20035;-43
2022/10/25 05:10:54;;;;;;;11.00;3.70;;;12.30;99.90;;;;;;4981951;28;20117;-42
2022/10/25 05:13:20;;;;;;;14.82;4.53;;;12.30;99.90;;;;;;4981728;28;20066;-42
2022/10/25 05:15:54;;;;;;;10.68;4.30;;;12.30;99.90;;;;;;4986420;28;20427;-44
2022/10/25 05:18:20;;;;;;;13.70;4.95;;;12.30;99.90;;;;;;4985233;28;20153;-47
2022/10/25 05:20:51;;;;;;;7.05;3.65;;;12.20;99.90;;;;;;4978580;28;20101;-48
2022/10/25 05:23:17;;;;;;;9.45;3.35;;;12.20;99.90;;;;;;4978635;28;20492;-47
2022/10/25 05:25:43;;;;;;;13.40;4.10;;;12.20;99.90;;;;;;4982160;28;20042;-43
2022/10/25 05:28:08;;;;;;;11.25;4.40;;;12.10;99.90;;;;;;4985998;28;20050;-44
2022/10/25 05:30:34;;;;;;;13.57;4.93;;;12.10;99.90;;;;;;4982649;28;20045;-40
2022/10/25 05:32:59;;;;;;;11.55;4.32;;;12.10;99.90;;;;;;4984510;28;20046;-43
2022/10/25 05:35:25;;;;;;;17.10;4.93;;;12.00;99.90;;;;;;4985676;28;20031;-46
2022/10/25 05:37:51;;;;;;;15.32;4.43;;;12.00;99.90;;;;;;4986975;28;20396;-44
2022/10/25 05:40:16;;;;;;;16.58;4.90;;;12.00;99.90;;;;;;4988387;28;20871;-44
2022/10/25 05:42:42;;;;;;;20.15;6.13;;;12.00;99.90;;;;;;4981290;28;20038;-41
2022/10/25 05:45:08;;;;;;;13.20;4.85;;;12.00;99.90;;;;;;4981002;28;20050;-43
2022/10/25 05:47:34;;;;;;;16.63;5.53;;;12.00;99.90;;;;;;4987732;28;20117;-43
2022/10/25 05:50:00;;;;;;;14.07;5.03;;;12.00;99.90;;;;;;4990033;28;20195;-44
2022/10/25 05:52:26;;;;;;;9.85;4.45;;;12.10;99.90;;;;;;4990684;28;20050;-39
2022/10/25 05:54:51;;;;;;;23.70;5.65;;;12.10;99.90;;;;;;4989357;28;20038;-41
2022/10/25 05:57:17;;;;;;;16.63;5.05;;;12.10;99.90;;;;;;4988860;28;20062;-41
2022/10/25 05:59:42;;;;;;;13.30;5.07;;;12.20;99.90;;;;;;4991423;28;20061;-46
2022/10/25 06:02:08;;;;;;;12.93;5.50;;;12.20;99.90;;;;;;4991401;28;20535;-41
2022/10/25 06:04:34;;;;;;;19.35;5.22;;;12.30;99.90;;;;;;4989623;28;20038;-42
2022/10/25 06:07:00;;;;;;;17.23;5.47;;;12.30;99.90;;;;;;4986655;28;20061;-44
2022/10/25 06:09:25;;;;;;;20.60;5.75;;;12.40;99.90;;;;;;4986732;28;20427;-43
2022/10/25 06:11:51;;;;;;;15.38;5.10;;;12.40;99.90;;;;;;4986580;28;20035;-41
2022/10/25 06:14:17;;;;;;;14.07;4.93;;;12.40;99.90;;;;;;4994991;28;20050;-42
2022/10/25 06:16:42;;;;;;;15.60;4.93;;;12.50;99.90;;;;;;4993183;28;20053;-41
2022/10/25 06:19:08;;;;;;;16.67;6.03;;;12.40;99.90;;;;;;4993253;28;20113;-41
2022/10/25 06:21:34;;;;;;;12.30;5.10;;;12.40;99.90;;;;;;4988593;28;20034;-44
2022/10/25 06:24:00;;;;;;;14.93;4.90;;;12.40;99.90;;;;;;4993308;28;20045;-42
2022/10/25 06:26:28;;;;;;;21.08;5.68;;;12.40;99.90;;;;;;4988434;28;20038;-42
2022/10/25 06:28:56;;;;;;;11.48;5.05;;;12.40;99.90;;;;;;4980567;28;20065;-43
2022/10/25 06:31:22;;;;;;;16.00;5.45;;;12.50;99.90;;;;;;4989091;28;20080;-42
2022/10/25 06:33:48;;;;;;;13.60;5.43;;;12.40;99.90;;;;;;4985055;28;20043;-41
2022/10/25 06:36:16;;;;;;;19.67;5.93;;;12.40;99.90;;;;;;4990469;28;20034;-45
2022/10/25 06:38:43;;;;;;;15.05;5.18;;;12.40;99.90;;;;;;4989451;28;20038;-43
2022/10/25 06:41:11;;;;;;;16.95;5.28;;;12.40;99.90;;;;;;4990572;28;20499;-41
2022/10/25 06:43:37;;;;;;;20.63;5.45;;;12.40;99.90;;;;;;4990082;28;20038;-42
2022/10/25 06:46:13;;;;;;;17.40;5.60;;;12.40;99.90;;;;;;4990121;28;20046;-41
2022/10/25 06:48:39;;;;;;;14.25;5.88;;;12.40;99.90;;;;;;4988698;28;20413;-40
2022/10/25 06:51:08;;;;;;;13.38;5.38;;;12.40;99.90;;;;;;4990389;28;20038;-41
2022/10/25 06:53:34;;;;;;;16.13;5.60;;;12.40;99.90;;;;;;4987727;28;20452;-43
2022/10/25 06:56:01;;;;;;;16.92;5.18;;;12.40;99.90;;;;;;4988778;28;20114;-44
2022/10/25 06:58:29;;;;;;;16.05;5.88;;;12.40;99.90;;;;;;4989201;28;20053;-43
2022/10/25 07:01:02;;;;;;;17.10;6.22;;;12.40;99.90;;;;;;4986113;28;20042;-50
2022/10/25 07:03:33;;;;;;;19.42;6.18;;;12.40;99.90;;;;;;4990109;28;20038;-40
2022/10/25 07:06:05;;;;;;;18.02;6.38;;;12.40;99.90;;;;;;4982727;28;20515;-41
2022/10/25 07:08:31;;;;;;;17.55;5.93;;;12.40;99.90;;;;;;4985650;28;20080;-42
2022/10/25 07:10:57;;;;;;;17.02;6.55;;;12.50;99.90;;;;;;4991993;28;20629;-43
2022/10/25 07:13:24;;;;;;;19.83;6.93;;;12.50;99.90;;;;;;4990739;28;20121;-42
2022/10/25 07:15:49;;;;;;;16.55;6.32;;;12.50;99.90;;;;;;4981202;28;20511;-41
2022/10/25 07:18:15;;;;;;;11.90;5.93;;;12.60;99.90;;;;;;4989885;28;20045;-43
2022/10/25 07:20:45;;;;;;;17.10;6.47;;;12.60;99.90;;;;;;4988966;28;20413;-43
2022/10/25 07:23:11;;;;;;;17.98;6.72;;;12.70;99.90;;;;;;4985847;28;20035;-42
2022/10/25 07:25:37;;;;;;;20.30;6.60;;;12.70;99.90;;;;;;4986812;28;20038;-41
2022/10/25 07:28:03;;;;;;;20.67;6.95;;;12.80;99.90;;;;;;4987337;28;20093;-40
2022/10/25 07:30:28;;;;;;;17.65;6.55;;;12.80;99.90;;;;;;4987475;28;20447;-44
2022/10/25 07:32:54;;;;;;;18.85;6.43;;;12.80;99.90;;;;;;4989713;28;20046;-42
2022/10/25 07:35:20;;;;;;;21.35;6.57;;;12.80;99.90;;;;;;4986577;28;20034;-43
2022/10/25 07:37:45;;;;;;;12.40;6.30;;;12.90;99.90;;;;;;4988220;28;20038;-42
2022/10/25 07:40:11;;;;;;;16.15;6.45;;;12.90;99.90;;;;;;4987080;28;20502;-43
2022/10/25 07:42:36;;;;;;;18.55;7.75;;;13.00;99.90;;;;;;4986383;28;20049;-44
2022/10/25 07:45:02;;;;;;;17.38;5.90;;;13.00;99.90;;;;;;4988584;28;20062;-45
2022/10/25 07:47:28;;;;;;;17.13;6.75;;;13.10;99.90;;;;;;4984650;28;20053;-42
2022/10/25 07:49:56;;;;;;;14.80;6.30;;;13.10;99.90;;;;;;4979330;28;20096;-42
2022/10/25 07:52:22;;;;;;;13.85;6.10;;;13.10;99.90;;;;;;4983391;28;20062;-41
2022/10/25 07:54:48;;;;;;;18.55;6.82;;;13.10;99.90;;;;;;4985257;28;20038;-41
2022/10/25 07:57:13;;;;;;;15.77;6.95;;;13.20;99.90;;;;;;4989789;28;20046;-43
2022/10/25 07:59:39;;;;;;;16.40;7.00;;;13.30;99.90;;;;;;4991574;28;20044;-41
2022/10/25 08:02:05;;;;;;;17.77;7.50;;;13.30;99.90;;;;;;4991165;28;20046;-46
2022/10/25 08:04:31;;;;;;;13.02;6.63;;;13.30;99.90;;;;;;4990915;28;20043;-43
2022/10/25 08:07:00;;;;;;;18.60;5.88;;;13.40;99.90;;;;;;4985575;28;20046;-42
2022/10/25 08:09:26;;;;;;;18.15;6.50;;;13.40;99.90;;;;;;4988407;28;20046;-44
2022/10/25 08:11:52;;;;;;;16.13;6.43;;;13.40;99.90;;;;;;4984266;28;20447;-43
2022/10/25 08:14:17;;;;;;;15.10;6.45;;;13.50;99.90;;;;;;4987011;28;20078;-41
2022/10/25 08:16:43;;;;;;;18.23;6.22;;;13.50;99.90;;;;;;4986438;28;20419;-41
2022/10/25 08:19:09;;;;;;;15.75;6.90;;;13.50;99.90;;;;;;4978894;28;20055;-40
2022/10/25 08:21:34;;;;;;;13.82;5.28;;;13.50;99.90;;;;;;4987552;28;20030;-42
2022/10/25 08:24:00;;;;;;;15.35;5.65;;;13.60;99.90;;;;;;4980810;28;20510;-44
2022/10/25 08:26:27;;;;;;;13.43;5.70;;;13.60;99.90;;;;;;4989207;28;20122;-43
2022/10/25 08:28:53;;;;;;;16.45;6.03;;;13.60;99.90;;;;;;4989792;28;20049;-40
2022/10/25 08:31:19;;;;;;;13.40;5.72;;;13.70;99.90;;;;;;4984740;28;20712;-40
2022/10/25 08:33:45;;;;;;;12.88;5.57;;;13.80;99.90;;;;;;4976608;28;20046;-40
2022/10/25 08:36:10;;;;;;;15.82;5.50;;;13.80;99.90;;;;;;4982350;28;20049;-43
2022/10/25 08:38:36;;;;;;;17.25;5.60;;;13.90;99.90;;;;;;4984846;28;20520;-47
2022/10/25 08:41:43;;;;;;;19.60;5.88;;;13.90;99.90;;;;;;4979424;28;20039;-40
2022/10/25 08:44:20;;;;;;;13.05;5.47;;;14.00;99.90;;;;;;4979180;28;20422;-43
2022/10/25 08:46:54;;;;;;;20.42;6.47;;;14.10;99.90;;;;;;4985054;28;20046;-42
2022/10/25 08:49:30;;;;;;;15.05;4.85;;;14.10;99.90;;;;;;4985991;28;20566;-44
2022/10/25 08:51:58;;;;;;;10.32;4.90;;;14.20;99.90;;;;;;4983359;28;20488;-41
2022/10/25 08:54:32;;;;;;;11.93;4.70;;;14.30;99.90;;;;;;4983557;28;20475;-38
2022/10/25 08:57:23;;;;;;;15.82;5.15;;;14.30;99.90;;;;;;4985537;28;20050;-43
2022/10/25 09:00:16;;;;;;;11.40;4.88;;;14.30;99.90;;;;;;4985759;28;20761;-42
2022/10/25 09:02:56;;;;;;;11.75;4.80;;;14.30;99.90;;;;;;4986119;28;20117;-42
2022/10/25 09:05:30;;;;;;;11.05;4.45;;;14.40;99.90;;;;;;4989319;28;20039;-41
2022/10/25 09:08:14;;;;;;;9.93;4.30;;;14.50;99.90;;;;;;4983781;28;20042;-41
2022/10/25 09:11:11;;;;;;;13.52;4.25;;;14.50;99.90;;;;;;4990994;28;20088;-42
2022/10/25 09:13:54;;;;;;;11.75;4.68;;;14.50;99.90;;;;;;4992845;28;20046;-42
2022/10/25 09:16:32;;;;;;;14.05;4.78;;;14.60;99.90;;;;;;4992338;28;20495;-41
2022/10/25 09:18:58;;;;;;;12.35;4.82;;;14.70;99.90;;;;;;4989812;28;20055;-42
2022/10/25 09:21:40;;;;;;;12.70;4.22;;;14.80;99.90;;;;;;4987741;28;20038;-42
2022/10/25 09:24:15;;;;;;;9.13;4.03;;;14.80;99.90;;;;;;4968707;28;20046;-43
2022/10/25 09:26:59;;;;;;;10.70;3.53;;;14.80;99.90;;;;;;4991231;28;20057;-44
2022/10/25 09:29:32;;;;;;;13.88;4.60;;;14.80;99.90;;;;;;4990939;28;20117;-41
2022/10/25 09:31:59;;;;;;;10.10;4.32;;;14.90;99.90;;;;;;4991303;28;20049;-41
2022/10/25 09:34:31;;;;;;;8.63;3.88;;;14.90;99.90;;;;;;4986626;28;20050;-42
2022/10/25 09:37:36;;;;;;;11.07;3.75;;;14.90;99.90;;;;;;4979766;28;20038;-40
2022/10/25 09:40:22;;;;;;;9.18;3.67;;;14.90;99.90;;;;;;4977362;28;20097;-43
2022/10/25 09:42:52;;;;;;;9.90;3.33;;;14.90;99.90;;;;;;4976523;28;20050;-40
2022/10/25 09:45:30;;;;;;;10.93;3.40;;;14.90;99.90;;;;;;4986945;28;20060;-44
2022/10/25 09:48:28;;;;;;;8.60;3.85;;;14.90;99.90;;;;;;4987705;28;20085;-41
2022/10/25 09:51:09;;;;;;;7.97;3.17;;;14.90;99.90;;;;;;4988806;28;20066;-39
2022/10/25 09:53:39;;;;;;;15.05;3.92;;;15.00;99.90;;;;;;4991434;28;20042;-42
2022/10/25 09:56:05;;;;;;;9.02;3.78;;;15.00;99.90;;;;;;4989394;28;20151;-41
2022/10/25 09:58:41;;;;;;;16.55;3.78;;;15.00;99.90;;;;;;4991631;28;20523;-42
2022/10/25 10:01:25;;;;;;;10.60;4.05;;;14.90;99.90;;;;;;4992602;28;20046;-45
2022/10/25 10:03:52;;;;;;;12.32;3.75;;;14.90;99.90;;;;;;4974015;28;20042;-43
2022/10/25 10:06:34;;;;;;;10.07;3.20;;;14.80;99.90;;;;;;4967628;28;20038;-39
2022/10/25 10:09:03;;;;;;;6.80;3.63;;;14.90;99.90;;;;;;4969047;28;20042;-43
2022/10/25 10:11:31;;;;;;;8.10;3.33;;;14.90;99.90;;;;;;4975604;28;20455;-41
2022/10/25 10:14:05;;;;;;;11.73;3.63;;;14.80;99.90;;;;;;4989618;28;20042;-42
2022/10/25 10:16:35;;;;;;;8.98;2.85;;;14.90;99.90;;;;;;4990882;28;20535;-44
2022/10/25 10:19:17;;;;;;;7.97;3.47;;;14.90;99.90;;;;;;4989185;28;20120;-42
2022/10/25 10:21:44;;;;;;;;;;;15.00;99.90;;;;;;4989762;28;20035;-42
2022/10/25 10:24:20;;;;;;;8.43;3.33;;;15.10;99.90;;;;;;4988397;28;19921;-44
2022/10/25 10:26:53;;;;;;;9.05;3.88;;;15.10;99.90;;;;;;4988674;28;20046;-43
2022/10/25 10:29:23;;;;;;;;;;;15.10;99.90;;;;;;4990088;28;20418;-43
2022/10/25 10:31:52;;;;;;;10.30;3.80;;;15.10;99.90;;;;;;4982600;28;19928;-42
2022/10/25 10:34:43;;;;;;;7.03;3.08;;;15.00;99.90;;;;;;4991554;28;20096;-40
2022/10/25 10:37:11;;;;;;;9.00;3.03;;;15.10;99.90;;;;;;4985375;28;20121;-40
2022/10/25 10:39:54;;;;;;;6.63;2.97;;;15.30;99.90;;;;;;4987516;28;20096;-42
2022/10/25 10:42:36;;;;;;;10.45;3.25;;;15.40;99.90;;;;;;4986339;28;20092;-41
2022/10/25 10:45:06;;;;;;;8.50;3.03;;;15.60;99.90;;;;;;4981380;28;20534;-41
2022/10/25 10:47:36;;;;;;;6.18;3.15;;;15.70;99.90;;;;;;4989766;28;20511;-42
2022/10/25 10:50:24;;;;;;;6.55;2.67;;;15.70;99.90;;;;;;4988681;28;20038;-42
2022/10/25 10:53:02;;;;;;;10.95;3.10;;;15.70;99.90;;;;;;4979281;28;20668;-43
2022/10/25 10:55:31;;;;;;;8.07;3.03;;;15.70;99.90;;;;;;4989704;28;20042;-43
2022/10/25 10:58:15;;;;;;;8.20;3.10;;;15.60;99.90;;;;;;4985149;28;20447;-44
2022/10/25 11:00:48;;;;;;;7.15;2.85;;;15.60;99.90;;;;;;4990225;28;20038;-42
2022/10/25 11:03:39;;;;;;;10.00;3.45;;;15.60;99.90;;;;;;4990234;28;20561;-42
2022/10/25 11:06:15;;;;;;;12.30;3.03;;;15.70;99.90;;;;;;4981134;28;20054;-41
2022/10/25 11:08:46;;;;;;;8.93;3.05;;;15.80;99.90;;;;;;4989583;28;20041;-42
2022/10/25 11:11:23;;;;;;;7.13;2.42;;;15.90;99.90;;;;;;4994736;28;20129;-43
2022/10/25 11:14:00;;;;;;;7.82;2.92;;;16.10;99.90;;;;;;4992074;28;20046;-43
2022/10/25 11:17:04;;;;;;;5.97;2.42;;;16.30;99.90;;;;;;4988442;28;20058;-40
2022/10/25 11:19:29;;;;;;;8.23;2.15;;;16.40;99.90;;;;;;4974892;28;20050;-40
2022/10/25 11:22:09;;;;;;;9.70;2.42;;;16.50;99.90;;;;;;4989751;28;20047;-43
2022/10/25 11:25:06;;;;;;;6.45;2.70;;;16.40;99.90;;;;;;4986450;28;20449;-40
2022/10/25 11:27:56;;;;;;;6.57;1.75;;;16.40;99.90;;;;;;4989873;28;20039;-40
2022/10/25 11:30:23;;;;;;;6.63;1.83;;;16.30;99.90;;;;;;4988012;28;20042;-42
2022/10/25 11:33:03;;;;;;;8.25;1.90;;;16.30;99.90;;;;;;4991778;28;20046;-42
2022/10/25 11:36:12;;;;;;;11.40;2.17;;;16.40;99.90;;;;;;4989437;28;20403;-43
2022/10/25 11:38:49;;;;;;;8.38;2.00;;;16.50;99.90;;;;;;4984620;28;20073;-45
2022/10/25 11:41:20;;;;;;;5.30;2.20;;;16.60;99.90;;;;;;4989988;28;20141;-43
2022/10/25 11:43:55;;;;;;;9.43;1.98;;;16.50;99.90;;;;;;4988174;28;20084;-41
2022/10/25 11:46:42;;;;;;;6.85;1.77;;;16.50;99.90;;;;;;4990776;28;20043;-43
2022/10/25 11:49:26;;;;;;;10.25;1.73;;;16.60;99.90;;;;;;4988587;28;20046;-41
2022/10/25 11:52:15;;;;;;;6.70;1.33;;;17.00;99.90;;;;;;4989963;28;20100;-42
2022/10/25 11:54:49;;;;;;;9.05;1.83;;;17.10;99.90;;;;;;4990471;28;20512;-42
2022/10/25 11:57:27;;;;;;;7.40;1.88;;;17.10;99.90;;;;;;4990083;28;20112;-42
2022/10/25 12:00:12;;;;;;;7.50;1.98;;;17.10;99.90;;;;;;4989706;28;20548;-42
2022/10/25 12:03:04;;;;;;;9.60;1.98;;;17.20;99.90;;;;;;4988217;28;20515;-43
2022/10/25 12:05:54;;;;;;;6.30;2.17;;;17.40;99.90;;;;;;4970856;28;20407;-44
2022/10/25 12:08:41;;;;;;;7.60;1.92;;;17.60;99.90;;;;;;4983249;28;20575;-40
2022/10/25 12:11:15;;;;;;;5.47;1.95;;;17.80;99.90;;;;;;4988114;28;20050;-42
2022/10/25 12:13:49;;;;;;;10.77;1.83;;;18.00;99.90;;;;;;4988934;28;20587;-42
2022/10/25 12:16:18;;;;;;;7.38;2.17;;;18.20;99.90;;;;;;4979542;28;20050;-42
2022/10/25 12:18:48;;;;;;;6.63;2.20;;;18.40;99.90;;;;;;4989818;28;20097;-42
2022/10/25 12:21:23;;;;;;;6.97;1.98;;;18.40;99.90;;;;;;4990135;28;20404;-44
2022/10/25 12:23:52;;;;;;;6.35;1.80;;;18.00;99.90;;;;;;4990219;28;20403;-42
2022/10/25 12:26:30;;;;;;;5.63;2.05;;;17.70;99.90;;;;;;4990560;28;20097;-41
2022/10/25 12:29:02;;;;;;;8.00;2.15;;;17.40;99.90;;;;;;4989303;28;20046;-41
2022/10/25 12:31:30;;;;;;;;;;;17.30;99.90;;;;;;4989075;28;20038;-42
2022/10/25 12:34:07;;;;;;;5.13;1.55;;;17.30;99.90;;;;;;4989499;28;20016;-41
2022/10/25 12:36:42;;;;;;;2.92;1.30;;;17.40;99.90;;;;;;4987678;28;20066;-42
2022/10/25 12:39:38;;;;;;;8.95;2.08;;;18.00;99.90;;;;;;4988739;28;20044;-42
2022/10/25 12:42:13;;;;;;;7.32;1.60;;;18.30;98.60;;;;;;4980484;28;20054;-43
2022/10/25 12:45:04;;;;;;;5.55;1.80;;;18.10;99.90;;;;;;4990242;28;20077;-44
2022/10/25 12:47:54;;;;;;;6.05;1.52;;;18.00;99.90;;;;;;4980654;28;20127;-43
2022/10/25 12:50:38;;;;;;;7.90;2.08;;;18.10;99.90;;;;;;4984759;28;20130;-42
2022/10/25 12:53:07;;;;;;;4.80;1.42;;;18.70;99.80;;;;;;4982324;28;20050;-42
2022/10/25 12:55:46;;;;;;;5.53;1.48;;;19.60;98.60;;;;;;4984451;28;20446;-42
2022/10/25 12:58:21;;;;;;;7.13;1.63;;;20.30;96.50;;;;;;4986415;28;20085;-43
2022/10/25 13:01:17;;;;;;;3.78;1.13;;;21.00;96.00;;;;;;4986475;28;20035;-43
2022/10/25 13:04:03;;;;;;;6.68;1.50;;;21.70;92.20;;;;;;4985283;28;20050;-43
2022/10/25 13:06:47;;;;;;;5.35;1.40;;;21.80;92.40;;;;;;4986466;28;20495;-42